Terminal Aerodrome Forecast
Issued by NWS Newport/Morehead City, NC

Home | Current Version | Previous Version | Graphics & Text | Print | Product List | Glossary On
Versions: 1 2 3 4 5 6 7 8 9 10 11 12 13 14 15 16 17 18 19 20 21
855
FTUS42 KMHX 292009 AAA
TAFEWN
TAF AMD
KEWN 292009Z 2920/3018 04008KT 5SM -TSRA SCT015 OVC030CB
      TEMPO 2920/2922 1/2SM +TSRA BKN015CB OVC025
     FM300700 01005KT 5SM BR BKN008 BKN200
     FM301300 04009KT P6SM BKN025
     FM301600 04009KT P6SM BKN035=

USA.gov is the U.S. government's official web portal to all federal, state and local government web resources and services.